sensor_id;sensor_type;location;lat;lon;timestamp;P1;durP1;ratioP1;P2;durP2;ratioP2
14858;SDS011;7521;51.700;6.874;2024-01-30T00:01:42;12.70;;;7.93;;
14858;SDS011;7521;51.700;6.874;2024-01-30T00:04:47;14.33;;;8.20;;
14858;SDS011;7521;51.700;6.874;2024-01-30T00:07:52;12.93;;;8.52;;
14858;SDS011;7521;51.700;6.874;2024-01-30T00:10:57;10.32;;;7.90;;
14858;SDS011;7521;51.700;6.874;2024-01-30T00:14:03;11.77;;;7.35;;
14858;SDS011;7521;51.700;6.874;2024-01-30T00:17:08;10.10;;;7.40;;
14858;SDS011;7521;51.700;6.874;2024-01-30T00:20:13;11.80;;;7.90;;
14858;SDS011;7521;51.700;6.874;2024-01-30T00:23:19;10.93;;;8.15;;
14858;SDS011;7521;51.700;6.874;2024-01-30T00:26:24;12.25;;;8.10;;
14858;SDS011;7521;51.700;6.874;2024-01-30T00:29:29;9.30;;;7.60;;
14858;SDS011;7521;51.700;6.874;2024-01-30T00:32:38;12.10;;;7.87;;
14858;SDS011;7521;51.700;6.874;2024-01-30T00:35:43;13.30;;;8.32;;
14858;SDS011;7521;51.700;6.874;2024-01-30T00:38:48;9.93;;;7.70;;
14858;SDS011;7521;51.700;6.874;2024-01-30T00:41:53;10.83;;;7.77;;
14858;SDS011;7521;51.700;6.874;2024-01-30T00:44:58;11.68;;;8.23;;
14858;SDS011;7521;51.700;6.874;2024-01-30T00:48:04;15.00;;;8.38;;
14858;SDS011;7521;51.700;6.874;2024-01-30T00:51:09;9.67;;;7.37;;
14858;SDS011;7521;51.700;6.874;2024-01-30T00:54:14;10.98;;;8.07;;
14858;SDS011;7521;51.700;6.874;2024-01-30T00:57:19;11.90;;;8.30;;
14858;SDS011;7521;51.700;6.874;2024-01-30T01:00:24;9.43;;;7.40;;
14858;SDS011;7521;51.700;6.874;2024-01-30T01:03:33;12.80;;;8.37;;
14858;SDS011;7521;51.700;6.874;2024-01-30T01:06:39;11.20;;;7.97;;
14858;SDS011;7521;51.700;6.874;2024-01-30T01:09:44;12.57;;;8.57;;
14858;SDS011;7521;51.700;6.874;2024-01-30T01:12:49;13.00;;;8.90;;
14858;SDS011;7521;51.700;6.874;2024-01-30T01:15:54;11.40;;;8.87;;
14858;SDS011;7521;51.700;6.874;2024-01-30T01:19:00;11.23;;;7.63;;
14858;SDS011;7521;51.700;6.874;2024-01-30T01:22:05;12.90;;;8.50;;
14858;SDS011;7521;51.700;6.874;2024-01-30T01:25:10;14.82;;;8.25;;
14858;SDS011;7521;51.700;6.874;2024-01-30T01:28:15;10.93;;;7.90;;
14858;SDS011;7521;51.700;6.874;2024-01-30T01:31:20;11.00;;;7.63;;
14858;SDS011;7521;51.700;6.874;2024-01-30T01:34:29;11.63;;;8.30;;
14858;SDS011;7521;51.700;6.874;2024-01-30T01:37:34;12.43;;;7.77;;
14858;SDS011;7521;51.700;6.874;2024-01-30T01:40:40;11.43;;;8.38;;
14858;SDS011;7521;51.700;6.874;2024-01-30T01:43:46;8.83;;;7.60;;
14858;SDS011;7521;51.700;6.874;2024-01-30T01:46:51;12.63;;;8.23;;
14858;SDS011;7521;51.700;6.874;2024-01-30T01:49:56;12.77;;;8.60;;
14858;SDS011;7521;51.700;6.874;2024-01-30T01:53:02;12.90;;;8.07;;
14858;SDS011;7521;51.700;6.874;2024-01-30T01:56:07;11.67;;;8.47;;
14858;SDS011;7521;51.700;6.874;2024-01-30T01:59:13;10.67;;;8.40;;
14858;SDS011;7521;51.700;6.874;2024-01-30T02:02:18;11.83;;;8.47;;
14858;SDS011;7521;51.700;6.874;2024-01-30T02:05:24;12.93;;;8.73;;
14858;SDS011;7521;51.700;6.874;2024-01-30T02:08:30;12.50;;;8.70;;
14858;SDS011;7521;51.700;6.874;2024-01-30T02:11:35;11.40;;;8.40;;
14858;SDS011;7521;51.700;6.874;2024-01-30T02:14:47;10.27;;;8.13;;
14858;SDS011;7521;51.700;6.874;2024-01-30T02:17:52;11.40;;;8.20;;
14858;SDS011;7521;51.700;6.874;2024-01-30T02:20:58;12.07;;;8.20;;
14858;SDS011;7521;51.700;6.874;2024-01-30T02:24:06;11.07;;;8.87;;
14858;SDS011;7521;51.700;6.874;2024-01-30T02:27:11;14.17;;;8.43;;
14858;SDS011;7521;51.700;6.874;2024-01-30T02:30:17;11.07;;;8.53;;
14858;SDS011;7521;51.700;6.874;2024-01-30T02:33:22;16.25;;;8.85;;
14858;SDS011;7521;51.700;6.874;2024-01-30T02:36:27;11.00;;;8.50;;
14858;SDS011;7521;51.700;6.874;2024-01-30T02:39:32;12.95;;;8.15;;
14858;SDS011;7521;51.700;6.874;2024-01-30T02:42:37;13.85;;;8.55;;
14858;SDS011;7521;51.700;6.874;2024-01-30T02:45:42;12.75;;;8.27;;
14858;SDS011;7521;51.700;6.874;2024-01-30T02:48:48;11.77;;;8.67;;
14858;SDS011;7521;51.700;6.874;2024-01-30T02:51:53;13.23;;;8.68;;
14858;SDS011;7521;51.700;6.874;2024-01-30T02:54:59;11.30;;;8.23;;
14858;SDS011;7521;51.700;6.874;2024-01-30T02:58:04;14.57;;;8.57;;
14858;SDS011;7521;51.700;6.874;2024-01-30T03:01:09;11.48;;;8.43;;
14858;SDS011;7521;51.700;6.874;2024-01-30T03:04:14;11.88;;;8.18;;
14858;SDS011;7521;51.700;6.874;2024-01-30T03:07:19;15.87;;;9.30;;
14858;SDS011;7521;51.700;6.874;2024-01-30T03:10:24;13.18;;;8.65;;
14858;SDS011;7521;51.700;6.874;2024-01-30T03:13:30;11.20;;;9.05;;
14858;SDS011;7521;51.700;6.874;2024-01-30T03:16:35;13.70;;;8.77;;
14858;SDS011;7521;51.700;6.874;2024-01-30T03:19:40;14.73;;;9.27;;
14858;SDS011;7521;51.700;6.874;2024-01-30T03:22:46;14.53;;;9.53;;
14858;SDS011;7521;51.700;6.874;2024-01-30T03:25:51;11.10;;;8.33;;
14858;SDS011;7521;51.700;6.874;2024-01-30T03:28:56;13.52;;;8.50;;
14858;SDS011;7521;51.700;6.874;2024-01-30T03:32:01;12.70;;;9.23;;
14858;SDS011;7521;51.700;6.874;2024-01-30T03:35:07;13.23;;;8.83;;
14858;SDS011;7521;51.700;6.874;2024-01-30T03:38:12;13.63;;;8.67;;
14858;SDS011;7521;51.700;6.874;2024-01-30T03:41:17;15.45;;;8.63;;
14858;SDS011;7521;51.700;6.874;2024-01-30T03:44:22;12.32;;;8.30;;
14858;SDS011;7521;51.700;6.874;2024-01-30T03:47:27;14.55;;;8.40;;
14858;SDS011;7521;51.700;6.874;2024-01-30T03:50:32;13.77;;;8.40;;
14858;SDS011;7521;51.700;6.874;2024-01-30T03:53:38;11.30;;;8.63;;
14858;SDS011;7521;51.700;6.874;2024-01-30T03:56:43;12.38;;;8.38;;
14858;SDS011;7521;51.700;6.874;2024-01-30T03:59:48;12.33;;;8.67;;
14858;SDS011;7521;51.700;6.874;2024-01-30T04:02:53;9.88;;;7.75;;
14858;SDS011;7521;51.700;6.874;2024-01-30T04:05:58;11.95;;;8.52;;
14858;SDS011;7521;51.700;6.874;2024-01-30T04:09:04;12.50;;;8.57;;
14858;SDS011;7521;51.700;6.874;2024-01-30T04:12:09;17.10;;;9.57;;
14858;SDS011;7521;51.700;6.874;2024-01-30T04:15:14;11.52;;;8.13;;
14858;SDS011;7521;51.700;6.874;2024-01-30T04:18:19;11.00;;;8.80;;
14858;SDS011;7521;51.700;6.874;2024-01-30T04:21:24;11.25;;;8.27;;
14858;SDS011;7521;51.700;6.874;2024-01-30T04:24:29;12.15;;;8.27;;
14858;SDS011;7521;51.700;6.874;2024-01-30T04:27:35;12.85;;;8.65;;
14858;SDS011;7521;51.700;6.874;2024-01-30T04:30:40;11.23;;;9.30;;
14858;SDS011;7521;51.700;6.874;2024-01-30T04:33:45;11.83;;;8.27;;
14858;SDS011;7521;51.700;6.874;2024-01-30T04:36:50;10.25;;;7.95;;
14858;SDS011;7521;51.700;6.874;2024-01-30T04:39:56;13.90;;;8.50;;
14858;SDS011;7521;51.700;6.874;2024-01-30T04:43:01;10.80;;;8.33;;
14858;SDS011;7521;51.700;6.874;2024-01-30T04:46:06;10.75;;;8.20;;
14858;SDS011;7521;51.700;6.874;2024-01-30T04:49:11;10.83;;;7.60;;
14858;SDS011;7521;51.700;6.874;2024-01-30T04:52:17;11.38;;;8.07;;
14858;SDS011;7521;51.700;6.874;2024-01-30T04:55:22;10.85;;;8.13;;
14858;SDS011;7521;51.700;6.874;2024-01-30T04:58:27;12.27;;;7.70;;
14858;SDS011;7521;51.700;6.874;2024-01-30T05:01:32;12.52;;;8.27;;
14858;SDS011;7521;51.700;6.874;2024-01-30T05:04:37;10.98;;;8.35;;
14858;SDS011;7521;51.700;6.874;2024-01-30T05:07:42;10.82;;;7.60;;
14858;SDS011;7521;51.700;6.874;2024-01-30T05:10:48;11.03;;;7.97;;
14858;SDS011;7521;51.700;6.874;2024-01-30T05:13:53;11.68;;;8.45;;
14858;SDS011;7521;51.700;6.874;2024-01-30T05:16:58;9.55;;;7.90;;
14858;SDS011;7521;51.700;6.874;2024-01-30T05:20:03;10.75;;;8.32;;
14858;SDS011;7521;51.700;6.874;2024-01-30T05:23:09;12.43;;;8.67;;
14858;SDS011;7521;51.700;6.874;2024-01-30T05:26:15;13.50;;;8.55;;
14858;SDS011;7521;51.700;6.874;2024-01-30T05:29:20;10.07;;;7.55;;
14858;SDS011;7521;51.700;6.874;2024-01-30T05:32:25;17.17;;;8.43;;
14858;SDS011;7521;51.700;6.874;2024-01-30T05:35:30;9.82;;;8.07;;
14858;SDS011;7521;51.700;6.874;2024-01-30T05:38:36;12.43;;;7.97;;
14858;SDS011;7521;51.700;6.874;2024-01-30T05:41:41;13.98;;;8.07;;
14858;SDS011;7521;51.700;6.874;2024-01-30T05:44:46;10.90;;;7.85;;
14858;SDS011;7521;51.700;6.874;2024-01-30T05:47:51;12.27;;;7.72;;
14858;SDS011;7521;51.700;6.874;2024-01-30T05:50:56;12.07;;;8.45;;
14858;SDS011;7521;51.700;6.874;2024-01-30T05:54:02;10.20;;;7.67;;
14858;SDS011;7521;51.700;6.874;2024-01-30T05:57:11;14.50;;;8.17;;
14858;SDS011;7521;51.700;6.874;2024-01-30T06:00:17;10.70;;;8.10;;
14858;SDS011;7521;51.700;6.874;2024-01-30T06:03:22;12.27;;;8.20;;
14858;SDS011;7521;51.700;6.874;2024-01-30T06:06:27;13.00;;;8.43;;
14858;SDS011;7521;51.700;6.874;2024-01-30T06:09:33;10.63;;;7.37;;
14858;SDS011;7521;51.700;6.874;2024-01-30T06:12:38;12.93;;;7.77;;
14858;SDS011;7521;51.700;6.874;2024-01-30T06:15:43;12.48;;;7.68;;
14858;SDS011;7521;51.700;6.874;2024-01-30T06:18:48;9.40;;;6.97;;
14858;SDS011;7521;51.700;6.874;2024-01-30T06:21:53;10.88;;;7.88;;
14858;SDS011;7521;51.700;6.874;2024-01-30T06:24:59;12.32;;;8.02;;
14858;SDS011;7521;51.700;6.874;2024-01-30T06:28:04;11.20;;;8.23;;
14858;SDS011;7521;51.700;6.874;2024-01-30T06:31:09;13.43;;;7.70;;
14858;SDS011;7521;51.700;6.874;2024-01-30T06:34:14;11.98;;;7.43;;
14858;SDS011;7521;51.700;6.874;2024-01-30T06:37:20;13.70;;;8.37;;
14858;SDS011;7521;51.700;6.874;2024-01-30T06:40:25;10.57;;;7.05;;
14858;SDS011;7521;51.700;6.874;2024-01-30T06:43:30;10.48;;;7.47;;
14858;SDS011;7521;51.700;6.874;2024-01-30T06:46:38;12.70;;;7.75;;
14858;SDS011;7521;51.700;6.874;2024-01-30T06:49:43;11.77;;;8.20;;
14858;SDS011;7521;51.700;6.874;2024-01-30T06:52:50;10.07;;;7.13;;
14858;SDS011;7521;51.700;6.874;2024-01-30T06:55:55;10.27;;;7.87;;
14858;SDS011;7521;51.700;6.874;2024-01-30T06:59:01;11.00;;;8.23;;
14858;SDS011;7521;51.700;6.874;2024-01-30T07:02:06;11.15;;;8.30;;
14858;SDS011;7521;51.700;6.874;2024-01-30T07:05:12;12.43;;;8.33;;
14858;SDS011;7521;51.700;6.874;2024-01-30T07:08:18;10.73;;;8.33;;
14858;SDS011;7521;51.700;6.874;2024-01-30T07:11:23;13.37;;;9.17;;
14858;SDS011;7521;51.700;6.874;2024-01-30T07:14:28;11.93;;;8.87;;
14858;SDS011;7521;51.700;6.874;2024-01-30T07:17:34;10.82;;;8.60;;
14858;SDS011;7521;51.700;6.874;2024-01-30T07:20:39;12.97;;;9.50;;
14858;SDS011;7521;51.700;6.874;2024-01-30T07:23:51;9.83;;;8.53;;
14858;SDS011;7521;51.700;6.874;2024-01-30T07:26:56;12.32;;;8.48;;
14858;SDS011;7521;51.700;6.874;2024-01-30T07:30:01;13.20;;;8.97;;
14858;SDS011;7521;51.700;6.874;2024-01-30T07:33:07;15.33;;;9.37;;
14858;SDS011;7521;51.700;6.874;2024-01-30T07:36:13;13.00;;;8.33;;
14858;SDS011;7521;51.700;6.874;2024-01-30T07:39:18;12.00;;;7.45;;
14858;SDS011;7521;51.700;6.874;2024-01-30T07:42:23;11.83;;;8.40;;
14858;SDS011;7521;51.700;6.874;2024-01-30T07:45:29;10.07;;;7.47;;
14858;SDS011;7521;51.700;6.874;2024-01-30T07:48:37;13.93;;;8.67;;
14858;SDS011;7521;51.700;6.874;2024-01-30T07:51:42;15.68;;;7.60;;
14858;SDS011;7521;51.700;6.874;2024-01-30T07:54:49;11.83;;;7.60;;
14858;SDS011;7521;51.700;6.874;2024-01-30T07:57:54;12.90;;;8.13;;
14858;SDS011;7521;51.700;6.874;2024-01-30T08:01:00;10.13;;;7.30;;
14858;SDS011;7521;51.700;6.874;2024-01-30T08:04:05;9.93;;;6.87;;
14858;SDS011;7521;51.700;6.874;2024-01-30T08:07:11;9.40;;;7.33;;
14858;SDS011;7521;51.700;6.874;2024-01-30T08:10:16;10.97;;;7.77;;
14858;SDS011;7521;51.700;6.874;2024-01-30T08:13:23;11.50;;;8.13;;
14858;SDS011;7521;51.700;6.874;2024-01-30T08:16:29;13.43;;;8.10;;
14858;SDS011;7521;51.700;6.874;2024-01-30T08:19:34;14.27;;;7.70;;
14858;SDS011;7521;51.700;6.874;2024-01-30T08:22:39;13.23;;;7.13;;
14858;SDS011;7521;51.700;6.874;2024-01-30T08:25:47;12.40;;;8.10;;
14858;SDS011;7521;51.700;6.874;2024-01-30T08:28:53;13.77;;;7.90;;
14858;SDS011;7521;51.700;6.874;2024-01-30T08:31:58;13.63;;;7.53;;
14858;SDS011;7521;51.700;6.874;2024-01-30T08:35:05;11.23;;;7.50;;
14858;SDS011;7521;51.700;6.874;2024-01-30T08:38:11;10.10;;;7.17;;
14858;SDS011;7521;51.700;6.874;2024-01-30T08:41:17;10.67;;;7.10;;
14858;SDS011;7521;51.700;6.874;2024-01-30T08:44:22;9.77;;;7.33;;
14858;SDS011;7521;51.700;6.874;2024-01-30T08:47:27;11.38;;;7.90;;
14858;SDS011;7521;51.700;6.874;2024-01-30T08:50:33;11.07;;;7.53;;
14858;SDS011;7521;51.700;6.874;2024-01-30T08:53:39;11.45;;;7.05;;
14858;SDS011;7521;51.700;6.874;2024-01-30T08:56:44;15.20;;;6.93;;
14858;SDS011;7521;51.700;6.874;2024-01-30T08:59:49;11.18;;;6.75;;
14858;SDS011;7521;51.700;6.874;2024-01-30T09:02:54;9.53;;;6.87;;
14858;SDS011;7521;51.700;6.874;2024-01-30T09:05:59;10.00;;;6.95;;
14858;SDS011;7521;51.700;6.874;2024-01-30T09:09:04;11.23;;;7.33;;
14858;SDS011;7521;51.700;6.874;2024-01-30T09:12:10;12.57;;;7.20;;
14858;SDS011;7521;51.700;6.874;2024-01-30T09:15:16;9.63;;;6.67;;
14858;SDS011;7521;51.700;6.874;2024-01-30T09:18:21;8.15;;;6.80;;
14858;SDS011;7521;51.700;6.874;2024-01-30T09:21:27;12.97;;;7.63;;
14858;SDS011;7521;51.700;6.874;2024-01-30T09:24:32;10.90;;;6.72;;
14858;SDS011;7521;51.700;6.874;2024-01-30T09:27:37;8.82;;;7.00;;
14858;SDS011;7521;51.700;6.874;2024-01-30T09:30:43;10.03;;;7.47;;
14858;SDS011;7521;51.700;6.874;2024-01-30T09:33:48;15.93;;;7.53;;
14858;SDS011;7521;51.700;6.874;2024-01-30T09:36:54;13.07;;;8.07;;
14858;SDS011;7521;51.700;6.874;2024-01-30T09:39:59;12.03;;;8.03;;
14858;SDS011;7521;51.700;6.874;2024-01-30T09:43:04;12.10;;;7.35;;
14858;SDS011;7521;51.700;6.874;2024-01-30T09:46:11;9.33;;;6.97;;
14858;SDS011;7521;51.700;6.874;2024-01-30T09:49:18;14.20;;;8.37;;
14858;SDS011;7521;51.700;6.874;2024-01-30T09:52:24;12.67;;;7.10;;
14858;SDS011;7521;51.700;6.874;2024-01-30T09:55:29;14.47;;;7.50;;
14858;SDS011;7521;51.700;6.874;2024-01-30T09:58:35;15.73;;;8.40;;
14858;SDS011;7521;51.700;6.874;2024-01-30T10:01:40;15.48;;;7.68;;
14858;SDS011;7521;51.700;6.874;2024-01-30T10:04:49;11.97;;;7.37;;
14858;SDS011;7521;51.700;6.874;2024-01-30T10:07:55;15.80;;;7.93;;
14858;SDS011;7521;51.700;6.874;2024-01-30T10:11:01;12.40;;;7.17;;
14858;SDS011;7521;51.700;6.874;2024-01-30T10:14:08;11.70;;;8.00;;
14858;SDS011;7521;51.700;6.874;2024-01-30T10:17:13;12.50;;;7.50;;
14858;SDS011;7521;51.700;6.874;2024-01-30T10:20:18;10.93;;;7.47;;
14858;SDS011;7521;51.700;6.874;2024-01-30T10:23:24;11.80;;;7.57;;
14858;SDS011;7521;51.700;6.874;2024-01-30T10:26:30;11.82;;;7.35;;
14858;SDS011;7521;51.700;6.874;2024-01-30T10:29:39;10.93;;;7.20;;
14858;SDS011;7521;51.700;6.874;2024-01-30T10:32:44;18.17;;;7.60;;
14858;SDS011;7521;51.700;6.874;2024-01-30T10:35:49;12.67;;;7.37;;
14858;SDS011;7521;51.700;6.874;2024-01-30T10:38:55;15.93;;;7.80;;
14858;SDS011;7521;51.700;6.874;2024-01-30T10:42:04;10.63;;;6.87;;
14858;SDS011;7521;51.700;6.874;2024-01-30T10:45:13;11.03;;;6.87;;
14858;SDS011;7521;51.700;6.874;2024-01-30T10:48:18;10.57;;;7.13;;
14858;SDS011;7521;51.700;6.874;2024-01-30T10:51:24;12.87;;;7.33;;
14858;SDS011;7521;51.700;6.874;2024-01-30T10:54:30;9.63;;;7.00;;
14858;SDS011;7521;51.700;6.874;2024-01-30T10:57:36;10.90;;;7.23;;
14858;SDS011;7521;51.700;6.874;2024-01-30T11:00:42;14.10;;;6.77;;
14858;SDS011;7521;51.700;6.874;2024-01-30T11:03:47;12.70;;;6.80;;
14858;SDS011;7521;51.700;6.874;2024-01-30T11:06:52;14.57;;;7.35;;
14858;SDS011;7521;51.700;6.874;2024-01-30T11:10:00;12.00;;;7.50;;
14858;SDS011;7521;51.700;6.874;2024-01-30T11:13:13;13.70;;;7.70;;
14858;SDS011;7521;51.700;6.874;2024-01-30T11:16:19;8.93;;;7.47;;
14858;SDS011;7521;51.700;6.874;2024-01-30T11:19:25;13.07;;;8.30;;
14858;SDS011;7521;51.700;6.874;2024-01-30T11:22:33;12.37;;;7.67;;
14858;SDS011;7521;51.700;6.874;2024-01-30T11:25:39;12.43;;;7.87;;
14858;SDS011;7521;51.700;6.874;2024-01-30T11:28:44;11.00;;;7.80;;
14858;SDS011;7521;51.700;6.874;2024-01-30T11:31:57;14.70;;;7.77;;
14858;SDS011;7521;51.700;6.874;2024-01-30T11:35:04;14.90;;;8.70;;
14858;SDS011;7521;51.700;6.874;2024-01-30T11:38:11;14.30;;;8.70;;
14858;SDS011;7521;51.700;6.874;2024-01-30T11:41:16;11.77;;;8.30;;
14858;SDS011;7521;51.700;6.874;2024-01-30T11:44:22;15.87;;;8.93;;
14858;SDS011;7521;51.700;6.874;2024-01-30T11:47:27;13.57;;;8.40;;
14858;SDS011;7521;51.700;6.874;2024-01-30T11:50:33;12.10;;;7.80;;
14858;SDS011;7521;51.700;6.874;2024-01-30T11:53:38;13.23;;;7.80;;
14858;SDS011;7521;51.700;6.874;2024-01-30T11:56:43;11.18;;;8.07;;
14858;SDS011;7521;51.700;6.874;2024-01-30T11:59:48;11.57;;;7.53;;
14858;SDS011;7521;51.700;6.874;2024-01-30T12:02:54;14.33;;;7.83;;
14858;SDS011;7521;51.700;6.874;2024-01-30T12:06:03;12.47;;;7.57;;
14858;SDS011;7521;51.700;6.874;2024-01-30T12:09:08;12.33;;;7.70;;
14858;SDS011;7521;51.700;6.874;2024-01-30T12:12:14;11.90;;;7.67;;
14858;SDS011;7521;51.700;6.874;2024-01-30T12:15:21;11.60;;;7.90;;
14858;SDS011;7521;51.700;6.874;2024-01-30T12:18:26;13.00;;;7.80;;
14858;SDS011;7521;51.700;6.874;2024-01-30T12:21:33;11.77;;;7.77;;
14858;SDS011;7521;51.700;6.874;2024-01-30T12:24:38;11.40;;;7.27;;
14858;SDS011;7521;51.700;6.874;2024-01-30T12:27:44;9.07;;;6.93;;
14858;SDS011;7521;51.700;6.874;2024-01-30T12:30:49;13.50;;;7.47;;
14858;SDS011;7521;51.700;6.874;2024-01-30T12:33:54;11.63;;;7.60;;
14858;SDS011;7521;51.700;6.874;2024-01-30T12:37:02;11.20;;;7.17;;
14858;SDS011;7521;51.700;6.874;2024-01-30T12:40:08;11.77;;;7.67;;
14858;SDS011;7521;51.700;6.874;2024-01-30T12:43:14;12.70;;;7.13;;
14858;SDS011;7521;51.700;6.874;2024-01-30T12:46:19;11.43;;;7.37;;
14858;SDS011;7521;51.700;6.874;2024-01-30T12:49:24;11.03;;;7.43;;
14858;SDS011;7521;51.700;6.874;2024-01-30T12:52:30;13.15;;;7.85;;
14858;SDS011;7521;51.700;6.874;2024-01-30T12:55:35;11.83;;;6.80;;
14858;SDS011;7521;51.700;6.874;2024-01-30T12:58:40;10.30;;;8.10;;
14858;SDS011;7521;51.700;6.874;2024-01-30T13:01:47;10.70;;;7.17;;
14858;SDS011;7521;51.700;6.874;2024-01-30T13:04:54;12.00;;;7.30;;
14858;SDS011;7521;51.700;6.874;2024-01-30T13:07:59;9.80;;;6.97;;
14858;SDS011;7521;51.700;6.874;2024-01-30T13:11:04;11.73;;;7.07;;
14858;SDS011;7521;51.700;6.874;2024-01-30T13:14:09;11.73;;;7.33;;
14858;SDS011;7521;51.700;6.874;2024-01-30T13:17:14;15.15;;;8.25;;
14858;SDS011;7521;51.700;6.874;2024-01-30T13:20:20;13.80;;;7.20;;
14858;SDS011;7521;51.700;6.874;2024-01-30T13:23:25;15.67;;;7.63;;
14858;SDS011;7521;51.700;6.874;2024-01-30T13:26:33;11.07;;;7.45;;
14858;SDS011;7521;51.700;6.874;2024-01-30T13:29:39;12.80;;;7.47;;
14858;SDS011;7521;51.700;6.874;2024-01-30T13:32:44;14.27;;;8.37;;
14858;SDS011;7521;51.700;6.874;2024-01-30T13:35:49;12.27;;;7.53;;
14858;SDS011;7521;51.700;6.874;2024-01-30T13:38:54;10.43;;;7.80;;
14858;SDS011;7521;51.700;6.874;2024-01-30T13:41:59;11.95;;;7.85;;
14858;SDS011;7521;51.700;6.874;2024-01-30T13:45:04;12.73;;;7.35;;
14858;SDS011;7521;51.700;6.874;2024-01-30T13:48:10;12.13;;;7.67;;
14858;SDS011;7521;51.700;6.874;2024-01-30T13:51:15;13.87;;;8.13;;
14858;SDS011;7521;51.700;6.874;2024-01-30T13:54:22;12.97;;;7.97;;
14858;SDS011;7521;51.700;6.874;2024-01-30T13:57:27;12.87;;;7.60;;
14858;SDS011;7521;51.700;6.874;2024-01-30T14:00:33;14.13;;;7.93;;
14858;SDS011;7521;51.700;6.874;2024-01-30T14:03:38;12.80;;;8.03;;
14858;SDS011;7521;51.700;6.874;2024-01-30T14:06:43;14.25;;;7.60;;
14858;SDS011;7521;51.700;6.874;2024-01-30T14:09:49;11.57;;;7.20;;
14858;SDS011;7521;51.700;6.874;2024-01-30T14:12:54;14.23;;;7.63;;
14858;SDS011;7521;51.700;6.874;2024-01-30T14:15:59;11.93;;;7.60;;
14858;SDS011;7521;51.700;6.874;2024-01-30T14:19:04;12.75;;;8.55;;
14858;SDS011;7521;51.700;6.874;2024-01-30T14:22:10;10.67;;;7.70;;
14858;SDS011;7521;51.700;6.874;2024-01-30T14:25:15;11.73;;;7.37;;
14858;SDS011;7521;51.700;6.874;2024-01-30T14:28:21;11.37;;;7.93;;
14858;SDS011;7521;51.700;6.874;2024-01-30T14:31:26;13.55;;;7.18;;
14858;SDS011;7521;51.700;6.874;2024-01-30T14:34:31;11.77;;;7.05;;
14858;SDS011;7521;51.700;6.874;2024-01-30T14:37:37;12.82;;;7.85;;
14858;SDS011;7521;51.700;6.874;2024-01-30T14:40:42;11.53;;;6.50;;
14858;SDS011;7521;51.700;6.874;2024-01-30T14:43:48;12.70;;;6.23;;
14858;SDS011;7521;51.700;6.874;2024-01-30T14:46:53;15.20;;;5.45;;
14858;SDS011;7521;51.700;6.874;2024-01-30T14:49:58;10.03;;;5.00;;
14858;SDS011;7521;51.700;6.874;2024-01-30T14:53:03;11.52;;;6.20;;
14858;SDS011;7521;51.700;6.874;2024-01-30T14:56:08;8.63;;;4.87;;
14858;SDS011;7521;51.700;6.874;2024-01-30T14:59:14;9.93;;;4.40;;
14858;SDS011;7521;51.700;6.874;2024-01-30T15:02:19;5.90;;;2.40;;
14858;SDS011;7521;51.700;6.874;2024-01-30T15:05:24;5.30;;;2.50;;
14858;SDS011;7521;51.700;6.874;2024-01-30T15:08:30;4.65;;;1.65;;
14858;SDS011;7521;51.700;6.874;2024-01-30T15:11:35;4.93;;;1.60;;
14858;SDS011;7521;51.700;6.874;2024-01-30T15:14:40;5.07;;;1.60;;
14858;SDS011;7521;51.700;6.874;2024-01-30T15:17:45;3.87;;;1.50;;
14858;SDS011;7521;51.700;6.874;2024-01-30T15:20:51;4.10;;;1.60;;
14858;SDS011;7521;51.700;6.874;2024-01-30T15:23:56;3.38;;;1.40;;
14858;SDS011;7521;51.700;6.874;2024-01-30T15:27:01;7.35;;;1.88;;
14858;SDS011;7521;51.700;6.874;2024-01-30T15:30:06;6.03;;;1.33;;
14858;SDS011;7521;51.700;6.874;2024-01-30T15:33:12;1.77;;;0.97;;
14858;SDS011;7521;51.700;6.874;2024-01-30T15:36:17;5.03;;;1.00;;
14858;SDS011;7521;51.700;6.874;2024-01-30T15:39:22;4.67;;;1.80;;
14858;SDS011;7521;51.700;6.874;2024-01-30T15:42:28;2.83;;;1.07;;
14858;SDS011;7521;51.700;6.874;2024-01-30T15:45:33;5.10;;;2.00;;
14858;SDS011;7521;51.700;6.874;2024-01-30T15:48:39;3.87;;;1.40;;
14858;SDS011;7521;51.700;6.874;2024-01-30T15:51:44;4.17;;;1.00;;
14858;SDS011;7521;51.700;6.874;2024-01-30T15:54:50;4.68;;;1.10;;
14858;SDS011;7521;51.700;6.874;2024-01-30T15:57:55;3.17;;;1.30;;
14858;SDS011;7521;51.700;6.874;2024-01-30T16:01:03;3.10;;;1.00;;
14858;SDS011;7521;51.700;6.874;2024-01-30T16:04:08;3.90;;;1.47;;
14858;SDS011;7521;51.700;6.874;2024-01-30T16:07:13;6.33;;;1.07;;
14858;SDS011;7521;51.700;6.874;2024-01-30T16:10:18;4.83;;;2.10;;
14858;SDS011;7521;51.700;6.874;2024-01-30T16:13:23;4.77;;;2.40;;
14858;SDS011;7521;51.700;6.874;2024-01-30T16:16:29;2.50;;;1.30;;
14858;SDS011;7521;51.700;6.874;2024-01-30T16:19:34;4.37;;;1.60;;
14858;SDS011;7521;51.700;6.874;2024-01-30T16:22:39;2.47;;;1.00;;
14858;SDS011;7521;51.700;6.874;2024-01-30T16:25:44;5.10;;;1.30;;
14858;SDS011;7521;51.700;6.874;2024-01-30T16:28:50;4.10;;;1.27;;
14858;SDS011;7521;51.700;6.874;2024-01-30T16:31:55;3.30;;;1.17;;
14858;SDS011;7521;51.700;6.874;2024-01-30T16:35:00;3.33;;;1.40;;
14858;SDS011;7521;51.700;6.874;2024-01-30T16:38:05;3.70;;;1.30;;
14858;SDS011;7521;51.700;6.874;2024-01-30T16:41:11;4.73;;;1.47;;
14858;SDS011;7521;51.700;6.874;2024-01-30T16:44:16;5.33;;;1.20;;
14858;SDS011;7521;51.700;6.874;2024-01-30T16:47:21;6.25;;;2.55;;
14858;SDS011;7521;51.700;6.874;2024-01-30T16:50:27;3.03;;;1.17;;
14858;SDS011;7521;51.700;6.874;2024-01-30T16:53:32;2.72;;;0.98;;
14858;SDS011;7521;51.700;6.874;2024-01-30T16:56:37;8.35;;;5.28;;
14858;SDS011;7521;51.700;6.874;2024-01-30T16:59:42;6.60;;;3.92;;
14858;SDS011;7521;51.700;6.874;2024-01-30T17:02:47;8.52;;;4.28;;
14858;SDS011;7521;51.700;6.874;2024-01-30T17:05:52;6.60;;;4.57;;
14858;SDS011;7521;51.700;6.874;2024-01-30T17:09:00;6.23;;;5.07;;
14858;SDS011;7521;51.700;6.874;2024-01-30T17:12:05;8.47;;;5.50;;
14858;SDS011;7521;51.700;6.874;2024-01-30T17:15:10;8.03;;;5.83;;
14858;SDS011;7521;51.700;6.874;2024-01-30T17:18:16;11.10;;;6.63;;
14858;SDS011;7521;51.700;6.874;2024-01-30T17:21:23;8.00;;;6.97;;
14858;SDS011;7521;51.700;6.874;2024-01-30T17:24:28;11.38;;;7.35;;
14858;SDS011;7521;51.700;6.874;2024-01-30T17:27:35;9.17;;;6.57;;
14858;SDS011;7521;51.700;6.874;2024-01-30T17:30:40;8.23;;;6.67;;
14858;SDS011;7521;51.700;6.874;2024-01-30T17:33:46;9.80;;;6.75;;
14858;SDS011;7521;51.700;6.874;2024-01-30T17:36:51;12.27;;;6.70;;
14858;SDS011;7521;51.700;6.874;2024-01-30T17:39:56;8.88;;;6.63;;
14858;SDS011;7521;51.700;6.874;2024-01-30T17:43:02;11.47;;;6.90;;
14858;SDS011;7521;51.700;6.874;2024-01-30T17:46:07;9.20;;;7.03;;
14858;SDS011;7521;51.700;6.874;2024-01-30T17:49:13;13.43;;;7.03;;
14858;SDS011;7521;51.700;6.874;2024-01-30T17:52:18;9.63;;;8.43;;
14858;SDS011;7521;51.700;6.874;2024-01-30T17:55:24;10.43;;;9.17;;
14858;SDS011;7521;51.700;6.874;2024-01-30T17:58:29;10.80;;;9.17;;
14858;SDS011;7521;51.700;6.874;2024-01-30T18:01:34;11.85;;;9.57;;
14858;SDS011;7521;51.700;6.874;2024-01-30T18:04:40;13.07;;;9.13;;
14858;SDS011;7521;51.700;6.874;2024-01-30T18:07:46;12.47;;;9.30;;
14858;SDS011;7521;51.700;6.874;2024-01-30T18:10:51;12.93;;;9.27;;
14858;SDS011;7521;51.700;6.874;2024-01-30T18:13:56;12.80;;;9.50;;
14858;SDS011;7521;51.700;6.874;2024-01-30T18:17:02;14.00;;;11.10;;
14858;SDS011;7521;51.700;6.874;2024-01-30T18:20:07;16.20;;;11.87;;
14858;SDS011;7521;51.700;6.874;2024-01-30T18:23:13;16.03;;;10.80;;
14858;SDS011;7521;51.700;6.874;2024-01-30T18:26:18;14.43;;;11.37;;
14858;SDS011;7521;51.700;6.874;2024-01-30T18:29:24;15.30;;;11.50;;
14858;SDS011;7521;51.700;6.874;2024-01-30T18:32:30;18.83;;;12.97;;
14858;SDS011;7521;51.700;6.874;2024-01-30T18:35:35;19.52;;;12.85;;
14858;SDS011;7521;51.700;6.874;2024-01-30T18:38:40;17.20;;;12.63;;
14858;SDS011;7521;51.700;6.874;2024-01-30T18:41:47;18.48;;;13.77;;